Groton, Vermont
Current Conditions -  °F | °C
As of 4:36 PM on Wednesday 17 Dec 2014 (Local Time) from KMPV Reporting Station
Moderate Fog Moderate Fog  
Wind Chill: 33°   Ceiling: 100
Heat Index: 33°   Visibility: 0.25mi
Dew Point: 33°   Wind: 0mph
Humidity: 100%   Direction: NA
Pressure: 29.76"   Gusts: NA
Location:  44.21°N, 72.2°W
Report Text: KMPV 172136Z AUTO 00000KT 1/4SM FG VV001 01/01 A2976 RMK AO2 RAE16 P0000 T00060006
Loading
Personal Weather Stations






























Interactive Weather Map New forecast layout! Learn more

10-Day Weather Forecast

Advertisements
Track Severe Weather on mobile